createdAt,value
2019-05-01T00:01:13.659Z,31
2019-05-01T00:06:13.631Z,29
2019-05-01T00:11:14.667Z,26
2019-05-01T00:16:13.615Z,25
2019-05-01T00:21:13.636Z,22
2019-05-01T00:26:13.578Z,24
2019-05-01T00:31:13.580Z,31
2019-05-01T00:36:13.582Z,33
2019-05-01T00:41:13.585Z,32
2019-05-01T00:46:13.580Z,31
2019-05-01T00:51:13.625Z,29
2019-05-01T00:56:13.600Z,51
2019-05-01T01:01:13.575Z,30
2019-05-01T01:06:13.558Z,26
2019-05-01T01:11:13.542Z,25
2019-05-01T01:16:13.559Z,27
2019-05-01T01:21:13.559Z,25
2019-05-01T01:26:13.549Z,29
2019-05-01T01:31:13.577Z,28
2019-05-01T01:36:13.559Z,28
2019-05-01T01:41:13.564Z,26
2019-05-01T01:46:13.580Z,28
2019-05-01T01:51:13.508Z,28
2019-05-01T01:56:13.580Z,30
2019-05-01T02:01:17.842Z,30
2019-05-01T02:06:13.531Z,27
2019-05-01T02:11:13.492Z,26
2019-05-01T02:16:13.479Z,27
2019-05-01T02:21:13.517Z,22
2019-05-01T02:26:13.490Z,21
2019-05-01T02:31:29.857Z,22
2019-05-01T02:36:13.497Z,23
2019-05-01T02:41:13.467Z,21
2019-05-01T02:46:13.485Z,24
2019-05-01T02:51:13.558Z,19
2019-05-01T02:56:13.503Z,18
2019-05-01T03:01:14.607Z,19
2019-05-01T03:06:13.478Z,19
2019-05-01T03:11:13.473Z,15
2019-05-01T03:16:13.451Z,21
2019-05-01T03:21:13.433Z,19
2019-05-01T03:26:13.505Z,16
2019-05-01T03:31:13.489Z,16
2019-05-01T03:36:13.459Z,15
2019-05-01T03:41:13.432Z,14
2019-05-01T03:46:13.423Z,17
2019-05-01T03:51:13.594Z,18
2019-05-01T03:56:13.459Z,13
2019-05-01T04:01:13.393Z,12
2019-05-01T04:06:13.390Z,10
2019-05-01T04:11:13.380Z,8
2019-05-01T04:16:13.376Z,11
2019-05-01T04:21:13.396Z,9
2019-05-01T04:26:13.379Z,7
2019-05-01T04:31:13.415Z,8
2019-05-01T04:36:13.393Z,7
2019-05-01T04:41:13.372Z,7
2019-05-01T04:46:13.350Z,6
2019-05-01T04:51:13.383Z,6
2019-05-01T04:56:13.375Z,6
2019-05-01T05:01:13.302Z,3
2019-05-01T05:06:13.395Z,5
2019-05-01T05:11:13.458Z,5
2019-05-01T05:16:13.379Z,4
2019-05-01T05:21:13.363Z,5
2019-05-01T05:26:13.339Z,5
2019-05-01T05:31:13.275Z,6
2019-05-01T05:36:13.346Z,3
2019-05-01T05:41:13.293Z,4
2019-05-01T05:46:13.304Z,5
2019-05-01T05:51:13.316Z,4
2019-05-01T05:56:13.261Z,5
2019-05-01T06:01:13.305Z,8
2019-05-01T06:06:13.304Z,7
2019-05-01T06:11:13.261Z,8
2019-05-01T06:16:17.562Z,5
2019-05-01T06:21:13.303Z,5
2019-05-01T06:26:13.273Z,6
2019-05-01T06:31:13.236Z,5
2019-05-01T06:36:14.497Z,4
2019-05-01T06:41:14.347Z,5
2019-05-01T06:46:17.359Z,2
2019-05-01T06:51:19.000Z,4
2019-05-01T06:56:13.220Z,3
2019-05-01T07:01:23.975Z,5
2019-05-01T07:06:14.762Z,3
2019-05-01T07:11:16.773Z,4
2019-05-01T07:16:13.219Z,3
2019-05-01T07:21:13.183Z,4
2019-05-01T07:26:14.897Z,4
2019-05-01T07:31:13.183Z,2
2019-05-01T07:36:16.672Z,3
2019-05-01T07:41:13.222Z,3
2019-05-01T07:46:19.633Z,3
2019-05-01T07:51:13.158Z,1
2019-05-01T07:56:13.178Z,3
2019-05-01T08:01:20.247Z,3
2019-05-01T08:06:22.994Z,2
2019-05-01T08:11:13.119Z,2
2019-05-01T08:16:14.579Z,3
2019-05-01T08:21:13.131Z,5
2019-05-01T08:26:13.160Z,3
2019-05-01T08:31:13.167Z,4
2019-05-01T08:36:13.667Z,5
2019-05-01T08:41:13.131Z,4
2019-05-01T08:46:17.912Z,9
2019-05-01T08:51:13.147Z,8
2019-05-01T08:56:23.535Z,10
2019-05-01T09:01:16.564Z,13
2019-05-01T09:06:13.081Z,10
2019-05-01T09:11:13.059Z,11
2019-05-01T09:16:13.107Z,17
2019-05-01T09:21:13.098Z,15
2019-05-01T09:26:16.468Z,19
2019-05-01T09:31:13.101Z,19
2019-05-01T09:36:13.071Z,19
2019-05-01T09:41:13.060Z,18
2019-05-01T09:46:13.116Z,19
2019-05-01T09:51:17.816Z,18
2019-05-01T09:56:18.345Z,18
2019-05-01T10:01:18.335Z,24
2019-05-01T10:06:18.968Z,21
2019-05-01T10:11:28.702Z,21
2019-05-01T10:16:18.342Z,19
2019-05-01T10:21:22.528Z,23
2019-05-01T10:26:25.483Z,23
2019-05-01T10:31:18.257Z,23
2019-05-01T10:36:20.793Z,24
2019-05-01T10:41:18.291Z,23
2019-05-01T10:46:18.258Z,21
2019-05-01T10:51:18.291Z,23
2019-05-01T10:56:18.245Z,17
2019-05-01T11:01:18.249Z,21
2019-05-01T11:06:18.233Z,18
2019-05-01T11:11:18.253Z,21
2019-05-01T11:16:18.250Z,25
2019-05-01T11:21:18.212Z,20
2019-05-01T11:26:18.274Z,22
2019-05-01T11:31:18.265Z,20
2019-05-01T11:41:19.655Z,19
2019-05-01T11:46:19.699Z,18
2019-05-01T11:51:23.953Z,22
2019-05-01T11:56:19.657Z,25
2019-05-01T12:01:19.626Z,27
2019-05-01T12:06:23.512Z,28
2019-05-01T12:11:19.624Z,26
2019-05-01T12:16:19.595Z,25
2019-05-01T12:26:21.126Z,24
2019-05-01T12:31:21.148Z,26
2019-05-01T12:36:21.120Z,23
2019-05-01T12:41:21.118Z,28
2019-05-01T12:46:21.162Z,25
2019-05-01T12:51:21.356Z,26
2019-05-01T12:56:21.364Z,25
2019-05-01T13:01:21.354Z,27
2019-05-01T13:06:21.399Z,29
2019-05-01T13:11:21.329Z,27
2019-05-01T13:16:21.355Z,28
2019-05-01T13:21:21.316Z,29
2019-05-01T13:26:21.636Z,27
2019-05-01T13:31:25.706Z,30
2019-05-01T13:36:25.679Z,29
2019-05-01T13:41:30.013Z,35
2019-05-01T13:46:26.178Z,30
2019-05-01T13:51:26.160Z,32
2019-05-01T13:56:26.408Z,34
2019-05-01T14:01:26.417Z,32
2019-05-01T14:06:26.407Z,32
2019-05-01T14:11:26.441Z,34
2019-05-01T14:16:26.410Z,34
2019-05-01T14:21:26.364Z,33
2019-05-01T14:26:26.389Z,35
2019-05-01T14:31:26.362Z,33
2019-05-01T14:36:26.403Z,35
2019-05-01T14:41:26.396Z,34
2019-05-01T14:46:26.417Z,33
2019-05-01T14:51:26.358Z,30
2019-05-01T14:56:26.358Z,31
2019-05-01T15:01:27.692Z,31
2019-05-01T15:06:26.411Z,31
2019-05-01T15:11:26.364Z,34
2019-05-01T15:16:26.348Z,38
2019-05-01T15:21:26.328Z,36
2019-05-01T15:26:26.337Z,36
2019-05-01T15:31:27.141Z,36
2019-05-01T15:36:26.329Z,41
2019-05-01T15:41:26.288Z,38
2019-05-01T15:46:26.361Z,32
2019-05-01T15:51:26.317Z,37
2019-05-01T15:56:26.319Z,32
2019-05-01T16:01:26.267Z,32
2019-05-01T16:06:26.296Z,24
2019-05-01T16:11:26.328Z,25
2019-05-01T16:16:26.283Z,22
2019-05-01T16:21:26.298Z,24
2019-05-01T16:26:26.309Z,24
2019-05-01T16:31:26.235Z,31
2019-05-01T16:36:26.983Z,22
2019-05-01T16:41:27.004Z,21
2019-05-01T16:46:27.000Z,23
2019-05-01T16:51:26.965Z,19
2019-05-01T16:56:27.002Z,14
2019-05-01T17:01:26.979Z,30
2019-05-01T17:06:26.975Z,24
2019-05-01T17:11:26.962Z,18
2019-05-01T17:16:26.974Z,14
2019-05-01T17:21:26.952Z,16
2019-05-01T17:26:26.962Z,15
2019-05-01T17:31:26.942Z,12
2019-05-01T17:36:26.965Z,12
2019-05-01T17:41:28.817Z,15
2019-05-01T17:46:26.899Z,11
2019-05-01T17:51:27.722Z,14
2019-05-01T17:56:28.935Z,12
2019-05-01T18:01:34.464Z,44
2019-05-01T18:06:29.152Z,12
2019-05-01T18:11:29.165Z,16
2019-05-01T18:16:29.168Z,10
2019-05-01T18:21:29.140Z,14
2019-05-01T18:26:29.410Z,7
2019-05-01T18:31:44.445Z,10
2019-05-01T18:36:29.115Z,8
2019-05-01T18:37:52.901Z,8
2019-05-01T18:42:52.880Z,8
2019-05-01T18:47:52.879Z,9
2019-05-01T18:52:52.853Z,7
2019-05-01T18:57:52.981Z,9
2019-05-01T19:03:05.580Z,8
2019-05-01T19:07:58.439Z,8
2019-05-01T19:18:00.250Z,8
2019-05-01T19:22:59.291Z,7
2019-05-01T19:27:59.222Z,6
2019-05-01T19:32:59.988Z,5
2019-05-01T19:38:00.071Z,6
2019-05-01T19:43:00.466Z,8
2019-05-01T19:47:59.962Z,7
2019-05-01T19:52:59.982Z,8
2019-05-01T19:57:59.970Z,10
2019-05-01T20:03:00.449Z,13
2019-05-01T20:07:59.923Z,13
2019-05-01T20:12:59.908Z,14
2019-05-01T20:17:59.949Z,13
2019-05-01T20:22:59.914Z,21
2019-05-01T20:27:59.893Z,10
2019-05-01T20:33:03.855Z,12
2019-05-01T20:37:59.901Z,11
2019-05-01T20:43:07.467Z,9
2019-05-01T20:47:59.891Z,10
2019-05-01T20:52:59.893Z,10
2019-05-01T20:57:59.880Z,13
2019-05-01T21:02:59.843Z,8
2019-05-01T21:07:59.868Z,6
2019-05-01T21:12:59.935Z,4
2019-05-01T21:17:59.840Z,6
2019-05-01T21:23:11.831Z,2
2019-05-01T21:27:59.862Z,4
2019-05-01T21:33:14.073Z,4
2019-05-01T21:37:59.841Z,4
2019-05-01T21:42:59.845Z,3
2019-05-01T21:47:59.866Z,4
2019-05-01T21:53:07.198Z,5
2019-05-01T21:57:59.785Z,4
2019-05-01T22:02:59.815Z,3
2019-05-01T22:08:05.119Z,3
2019-05-01T22:12:59.790Z,3
2019-05-01T22:17:59.795Z,2
2019-05-01T22:22:59.813Z,4
2019-05-01T22:27:59.790Z,4
2019-05-01T22:32:59.798Z,3
2019-05-01T22:38:01.145Z,4
2019-05-01T22:42:59.771Z,3
2019-05-01T22:47:59.750Z,4
2019-05-01T22:52:59.762Z,5
2019-05-01T22:57:59.764Z,5
2019-05-01T23:03:07.382Z,4
2019-05-01T23:07:59.741Z,3
2019-05-01T23:13:00.521Z,2
2019-05-01T23:18:00.474Z,2
2019-05-01T23:23:00.524Z,3
2019-05-01T23:28:06.221Z,2
2019-05-01T23:33:00.481Z,2
2019-05-01T23:38:00.497Z,1
2019-05-01T23:43:00.503Z,1
2019-05-01T23:48:00.505Z,1
2019-05-01T23:53:00.463Z,2
2019-05-01T23:58:00.473Z,2
